createdAt,value
2022-10-13T00:00:44.461Z,101933.09
2022-10-13T00:03:11.582Z,101940.00
2022-10-13T00:05:42.853Z,101929.50
2022-10-13T00:08:10.612Z,101931.38
2022-10-13T00:10:39.012Z,101920.06
2022-10-13T00:13:07.054Z,101910.47
2022-10-13T00:15:42.823Z,101918.34
2022-10-13T00:18:09.539Z,101916.66
2022-10-13T00:20:36.536Z,101918.47
2022-10-13T00:23:02.953Z,101914.91
2022-10-13T00:25:29.455Z,101911.38
2022-10-13T00:27:55.859Z,101915.69
2022-10-13T00:30:22.413Z,101919.13
2022-10-13T00:32:48.888Z,101923.50
2022-10-13T00:35:15.506Z,101903.50
2022-10-13T00:37:42.018Z,101906.94
2022-10-13T00:40:08.865Z,101906.94
2022-10-13T00:42:35.317Z,101913.13
2022-10-13T00:45:19.590Z,101909.56
2022-10-13T00:47:50.409Z,101907.88
2022-10-13T00:50:21.362Z,101906.09
2022-10-13T00:52:49.532Z,101907.06
2022-10-13T00:55:20.462Z,101908.84
2022-10-13T00:57:54.849Z,101904.56
2022-10-13T01:00:25.465Z,101904.53
2022-10-13T01:02:52.089Z,101894.13
2022-10-13T01:05:20.831Z,101901.13
2022-10-13T01:07:49.864Z,101899.31
2022-10-13T01:10:26.415Z,101899.22
2022-10-13T01:13:01.392Z,101902.56
2022-10-13T01:15:42.067Z,101901.66
2022-10-13T01:18:40.606Z,101898.03
2022-10-13T01:21:21.017Z,101894.50
2022-10-13T01:24:03.597Z,101898.81
2022-10-13T01:26:45.038Z,101900.63
2022-10-13T01:29:29.645Z,101903.94
2022-10-13T01:32:03.593Z,101900.53
2022-10-13T01:34:33.178Z,101904.91
2022-10-13T01:37:17.990Z,101900.50
2022-10-13T01:39:56.411Z,101896.91
2022-10-13T01:42:31.582Z,101896.06
2022-10-13T01:45:01.769Z,101888.22
2022-10-13T01:47:31.439Z,101893.41
2022-10-13T01:49:58.646Z,101891.59
2022-10-13T01:52:32.160Z,101890.69
2022-10-13T01:55:08.131Z,101884.50
2022-10-13T01:57:34.501Z,101892.31
2022-10-13T02:00:06.679Z,101885.38
2022-10-13T02:03:04.116Z,101882.63
2022-10-13T02:05:41.817Z,101878.25
2022-10-13T02:08:15.173Z,101872.34
2022-10-13T02:10:52.355Z,101869.59
2022-10-13T02:13:24.045Z,101826.13
2022-10-13T02:15:55.160Z,101821.84
2022-10-13T02:18:26.838Z,101843.66
2022-10-13T02:20:55.416Z,101842.88
2022-10-13T02:23:22.725Z,101842.88
2022-10-13T02:25:51.202Z,101856.75
2022-10-13T02:28:19.132Z,101850.69
2022-10-13T02:30:46.728Z,101855.03
2022-10-13T02:33:14.563Z,101854.19
2022-10-13T02:35:42.051Z,101849.81
2022-10-13T02:38:09.239Z,101848.88
2022-10-13T02:40:35.904Z,101842.75
2022-10-13T02:43:02.830Z,101844.44
2022-10-13T02:45:29.492Z,101846.97
2022-10-13T02:47:57.859Z,101839.25
2022-10-13T02:50:24.671Z,101827.94
2022-10-13T02:52:51.273Z,101822.72
2022-10-13T02:55:18.074Z,101811.47
2022-10-13T02:57:44.795Z,101798.41
2022-10-13T03:00:11.851Z,101765.38
2022-10-13T03:02:38.706Z,101788.78
2022-10-13T03:05:05.629Z,101800.06
2022-10-13T03:07:32.179Z,101811.34
2022-10-13T03:09:58.843Z,101817.47
2022-10-13T03:12:25.506Z,101821.78
2022-10-13T03:14:52.105Z,101823.50
2022-10-13T03:17:19.239Z,101822.63
2022-10-13T03:19:45.922Z,101810.44
2022-10-13T03:22:15.470Z,101832.22
2022-10-13T03:24:42.753Z,101825.22
2022-10-13T03:27:09.699Z,101826.06
2022-10-13T03:29:36.173Z,101838.25
2022-10-13T03:32:02.872Z,101833.06
2022-10-13T03:34:29.819Z,101816.44
2022-10-13T03:36:56.344Z,101806.00
2022-10-13T03:39:23.199Z,101799.94
2022-10-13T03:41:50.101Z,101801.72
2022-10-13T03:44:16.573Z,101794.72
2022-10-13T03:46:43.179Z,101786.91
2022-10-13T03:49:11.983Z,101783.47
2022-10-13T03:51:39.157Z,101780.84
2022-10-13T03:54:06.235Z,101779.16
2022-10-13T03:56:32.995Z,101776.53
2022-10-13T03:59:01.115Z,101778.31
2022-10-13T04:01:29.965Z,101789.56
2022-10-13T04:03:58.229Z,101790.41
2022-10-13T04:06:26.323Z,101787.81
2022-10-13T04:08:53.682Z,101778.25
2022-10-13T04:11:21.122Z,101775.56
2022-10-13T04:13:47.806Z,101774.72
2022-10-13T04:16:19.603Z,101772.91
2022-10-13T04:18:51.695Z,101789.38
2022-10-13T04:21:18.136Z,101772.06
2022-10-13T04:23:44.669Z,101758.09
2022-10-13T04:26:20.795Z,101749.28
2022-10-13T04:28:49.136Z,101757.19
2022-10-13T04:31:16.074Z,101751.13
2022-10-13T04:33:42.864Z,101752.03
2022-10-13T04:36:12.270Z,101750.28
2022-10-13T04:38:38.953Z,101743.28
2022-10-13T04:41:07.043Z,101753.72
2022-10-13T04:43:34.587Z,101753.72
2022-10-13T04:46:01.904Z,101755.53
2022-10-13T04:48:29.006Z,101762.53
2022-10-13T04:51:03.648Z,101760.75
2022-10-13T04:53:31.171Z,101769.50
2022-10-13T04:56:02.482Z,101776.34
2022-10-13T04:58:29.461Z,101773.78
2022-10-13T05:00:56.380Z,101779.88
2022-10-13T05:03:23.461Z,101778.13
2022-10-13T05:05:50.505Z,101774.66
2022-10-13T05:08:17.064Z,101775.38
2022-10-13T05:10:43.696Z,101775.31
2022-10-13T05:13:10.116Z,101759.63
2022-10-13T05:15:39.433Z,101760.47
2022-10-13T05:18:05.996Z,101759.63
2022-10-13T05:20:32.548Z,101759.63
2022-10-13T05:22:59.043Z,101759.56
2022-10-13T05:25:28.234Z,101757.66
2022-10-13T05:27:56.934Z,101763.66
2022-10-13T05:30:23.786Z,101767.97
2022-10-13T05:32:53.721Z,101763.56
2022-10-13T05:35:20.531Z,101760.94
2022-10-13T05:37:46.968Z,101771.38
2022-10-13T05:40:13.850Z,101763.56
2022-10-13T05:42:40.315Z,101754.81
2022-10-13T05:45:09.274Z,101756.53
2022-10-13T05:47:35.788Z,101749.59
2022-10-13T05:50:02.536Z,101747.91
2022-10-13T05:52:32.377Z,101749.59
2022-10-13T05:55:03.182Z,101753.97
2022-10-13T05:57:38.146Z,101749.59
2022-10-13T06:00:15.144Z,101746.94
2022-10-13T06:02:57.246Z,101752.97
2022-10-13T06:05:26.035Z,101749.59
2022-10-13T06:07:54.277Z,101756.56
2022-10-13T06:10:20.946Z,101752.25
2022-10-13T06:12:47.591Z,101753.13
2022-10-13T06:15:14.242Z,101745.31
2022-10-13T06:17:40.873Z,101742.69
2022-10-13T06:20:08.926Z,101732.25
2022-10-13T06:22:36.579Z,101720.00
2022-10-13T06:25:04.477Z,101715.59
2022-10-13T06:27:31.640Z,101702.56
2022-10-13T06:29:58.212Z,101707.78
2022-10-13T06:32:25.148Z,101717.28
2022-10-13T06:34:51.623Z,101715.53
2022-10-13T06:37:18.109Z,101702.47
2022-10-13T06:39:44.662Z,101708.56
2022-10-13T06:42:11.098Z,101714.63
2022-10-13T06:44:37.593Z,101717.22
2022-10-13T06:47:05.547Z,101714.63
2022-10-13T06:49:32.096Z,101724.13
2022-10-13T06:51:58.858Z,101738.88
2022-10-13T06:54:25.451Z,101740.56
2022-10-13T06:56:52.077Z,101744.88
2022-10-13T06:59:19.055Z,101742.19
2022-10-13T07:01:45.692Z,101742.13
2022-10-13T07:04:12.517Z,101738.63
2022-10-13T07:06:39.053Z,101742.06
2022-10-13T07:09:07.287Z,101741.94
2022-10-13T07:11:34.797Z,101738.44
2022-10-13T07:16:28.237Z,101740.97
2022-10-13T07:18:54.755Z,101740.06
2022-10-13T07:21:21.717Z,101734.78
2022-10-13T07:23:48.448Z,101731.25
2022-10-13T07:26:16.034Z,101728.59
2022-10-13T07:28:44.028Z,101735.41
2022-10-13T07:31:16.186Z,101722.38
2022-10-13T07:33:44.310Z,101731.00
2022-10-13T07:36:11.814Z,101726.56
2022-10-13T07:38:38.385Z,101729.09
2022-10-13T07:41:07.060Z,101725.50
2022-10-13T07:43:33.932Z,101723.75
2022-10-13T07:46:04.623Z,101729.75
2022-10-13T07:48:32.096Z,101721.84
2022-10-13T07:50:58.763Z,101726.94
2022-10-13T07:53:25.372Z,101726.75
2022-10-13T07:55:51.868Z,101719.75
2022-10-13T07:58:18.517Z,101721.31
2022-10-13T08:00:45.178Z,101727.34
2022-10-13T08:03:11.702Z,101728.13
2022-10-13T08:05:39.287Z,101728.91
2022-10-13T08:08:05.748Z,101729.59
2022-10-13T08:10:32.233Z,101733.91
2022-10-13T08:12:58.649Z,101718.88
2022-10-13T08:15:25.117Z,101720.31
2022-10-13T08:17:51.537Z,101714.72
2022-10-13T08:20:18.122Z,101710.06
2022-10-13T08:22:44.616Z,101705.44
2022-10-13T08:25:11.299Z,101711.22
2022-10-13T08:27:50.782Z,101718.00
2022-10-13T08:30:18.315Z,101718.69
2022-10-13T08:32:44.967Z,101723.69
2022-10-13T08:35:12.708Z,101707.88
2022-10-13T08:37:39.169Z,101716.56
2022-10-13T08:40:06.327Z,101713.81
2022-10-13T08:42:32.841Z,101717.13
2022-10-13T08:48:06.740Z,101717.25
2022-10-13T08:50:36.791Z,101723.91
2022-10-13T08:53:11.176Z,101724.41
2022-10-13T08:55:50.763Z,101721.56
2022-10-13T08:58:23.465Z,101711.03
2022-10-13T09:01:11.609Z,101711.03
2022-10-13T09:03:52.673Z,101714.47
2022-10-13T09:06:27.223Z,101720.66
2022-10-13T09:09:02.508Z,101710.97
2022-10-13T09:11:33.979Z,101709.19
2022-10-13T09:14:03.975Z,101707.41
2022-10-13T09:16:42.491Z,101710.81
2022-10-13T09:19:28.750Z,101714.25
2022-10-13T09:21:58.232Z,101705.72
2022-10-13T09:24:26.818Z,101707.47
2022-10-13T09:27:06.438Z,101704.03
2022-10-13T09:29:32.999Z,101711.16
2022-10-13T09:32:14.897Z,101708.47
2022-10-13T09:34:41.709Z,101707.78
2022-10-13T09:37:19.544Z,101705.09
2022-10-13T09:39:46.455Z,101698.31
2022-10-13T09:42:29.205Z,101704.41
2022-10-13T09:45:13.618Z,101702.72
2022-10-13T09:47:41.746Z,101715.84
2022-10-13T09:50:24.551Z,101707.88
2022-10-13T09:52:51.660Z,101717.31
2022-10-13T09:55:35.862Z,101709.97
2022-10-13T09:58:30.149Z,101706.09
2022-10-13T10:00:57.787Z,101710.13
2022-10-13T10:03:33.585Z,101704.75
2022-10-13T10:06:06.951Z,101701.75
2022-10-13T10:09:03.870Z,101703.97
2022-10-13T10:11:39.588Z,101712.34
2022-10-13T10:14:18.302Z,101699.91
2022-10-13T10:16:50.576Z,101697.22
2022-10-13T10:19:29.931Z,101697.03
2022-10-13T10:22:13.172Z,101691.75
2022-10-13T10:25:05.070Z,101697.63
2022-10-13T10:27:38.837Z,101688.94
2022-10-13T10:30:20.424Z,101686.19
2022-10-13T10:33:21.476Z,101688.56
2022-10-13T10:36:16.850Z,101687.47
2022-10-13T10:39:00.410Z,101694.84
2022-10-13T10:41:35.917Z,101686.75
2022-10-13T10:44:08.892Z,101687.25
2022-10-13T10:46:42.557Z,101676.56
2022-10-13T10:49:36.930Z,101682.13
2022-10-13T10:52:08.469Z,101685.47
2022-10-13T10:54:49.498Z,101685.16
2022-10-13T10:57:43.838Z,101681.44
2022-10-13T11:00:17.397Z,101682.97
2022-10-13T11:02:56.161Z,101671.28
2022-10-13T11:05:23.074Z,101669.44
2022-10-13T11:07:52.881Z,101667.44
2022-10-13T11:10:21.959Z,101668.25
2022-10-13T11:12:51.336Z,101658.63
2022-10-13T11:15:31.157Z,101667.81
2022-10-13T11:17:57.687Z,101663.00
2022-10-13T11:20:27.010Z,101656.50
2022-10-13T11:22:59.593Z,101659.69
2022-10-13T11:25:41.190Z,101658.78
2022-10-13T11:28:23.109Z,101658.03
2022-10-13T11:30:52.291Z,101657.59
2022-10-13T11:33:35.370Z,101654.22
2022-10-13T11:36:32.873Z,101651.00
2022-10-13T11:39:22.280Z,101653.03
2022-10-13T11:42:03.884Z,101643.09
2022-10-13T11:45:24.713Z,101646.69
2022-10-13T11:48:11.495Z,101643.56
2022-10-13T11:51:11.317Z,101643.69
2022-10-13T11:54:00.891Z,101640.38
2022-10-13T11:56:47.472Z,101634.19
2022-10-13T11:59:29.466Z,101634.94
2022-10-13T12:02:07.078Z,101637.81
2022-10-13T12:04:34.066Z,101631.78
2022-10-13T12:07:03.430Z,101635.00
2022-10-13T12:09:31.604Z,101629.38
2022-10-13T12:12:02.126Z,101626.16
2022-10-13T12:14:44.505Z,101620.66
2022-10-13T12:17:28.341Z,101622.28
2022-10-13T12:20:18.030Z,101623.09
2022-10-13T12:22:49.014Z,101623.88
2022-10-13T12:25:17.982Z,101615.16
2022-10-13T12:27:48.545Z,101614.59
2022-10-13T12:30:32.165Z,101616.34
2022-10-13T12:33:01.090Z,101615.59
2022-10-13T12:35:33.795Z,101611.22
2022-10-13T12:38:14.537Z,101611.03
2022-10-13T12:40:41.054Z,101603.94
2022-10-13T12:43:07.550Z,101602.00
2022-10-13T12:45:35.266Z,101596.69
2022-10-13T12:48:01.928Z,101608.00
2022-10-13T12:50:28.343Z,101597.59
2022-10-13T12:53:08.673Z,101604.69
2022-10-13T12:55:38.191Z,101598.56
2022-10-13T12:58:04.700Z,101610.00
2022-10-13T13:00:31.271Z,101597.94
2022-10-13T13:02:59.513Z,101606.91
2022-10-13T13:05:35.534Z,101607.16
2022-10-13T13:08:21.167Z,101605.03
2022-10-13T13:10:54.908Z,101606.88
2022-10-13T13:13:23.116Z,101611.56
2022-10-13T13:15:49.755Z,101615.41
2022-10-13T13:18:39.696Z,101604.22
2022-10-13T13:21:08.150Z,101606.13
2022-10-13T13:23:35.761Z,101601.91
2022-10-13T13:26:10.485Z,101599.28
2022-10-13T13:28:37.923Z,101607.13
2022-10-13T13:31:04.780Z,101601.97
2022-10-13T13:33:31.209Z,101608.13
2022-10-13T13:35:57.711Z,101595.97
2022-10-13T13:38:24.185Z,101597.75
2022-10-13T13:40:50.715Z,101589.78
2022-10-13T13:43:17.384Z,101593.16
2022-10-13T13:45:44.305Z,101588.81
2022-10-13T13:48:12.199Z,101585.94
2022-10-13T13:50:39.307Z,101586.59
2022-10-13T13:53:06.748Z,101587.28
2022-10-13T13:55:33.270Z,101582.13
2022-10-13T13:57:59.777Z,101578.75
2022-10-13T14:00:26.758Z,101583.75
2022-10-13T14:02:53.541Z,101572.41
2022-10-13T14:05:20.404Z,101576.72
2022-10-13T14:07:46.947Z,101568.88
2022-10-13T14:10:13.745Z,101568.81
2022-10-13T14:12:40.164Z,101570.22
2022-10-13T14:15:07.440Z,101569.88
2022-10-13T14:17:34.043Z,101564.38
2022-10-13T14:20:00.572Z,101551.84
2022-10-13T14:22:27.454Z,101550.06
2022-10-13T14:24:54.398Z,101554.38
2022-10-13T14:27:21.454Z,101559.03
2022-10-13T14:29:48.194Z,101548.56
2022-10-13T14:32:14.806Z,101553.88
2022-10-13T14:34:41.326Z,101546.97
2022-10-13T14:37:08.151Z,101547.03
2022-10-13T14:39:34.817Z,101546.38
2022-10-13T14:42:01.588Z,101544.69
2022-10-13T14:44:28.013Z,101542.91
2022-10-13T14:46:55.034Z,101538.44
2022-10-13T14:49:21.544Z,101537.50
2022-10-13T14:51:48.001Z,101537.66
2022-10-13T14:54:16.886Z,101530.84
2022-10-13T14:56:44.750Z,101536.00
2022-10-13T14:59:12.082Z,101534.28
2022-10-13T15:01:41.544Z,101535.13
2022-10-13T15:04:08.723Z,101537.75
2022-10-13T15:06:35.967Z,101543.00
2022-10-13T15:09:02.475Z,101534.38
2022-10-13T15:11:28.918Z,101531.75
2022-10-13T15:13:56.276Z,101535.25
2022-10-13T15:16:25.400Z,101522.13
2022-10-13T15:18:51.909Z,101527.38
2022-10-13T15:21:18.905Z,101524.75
2022-10-13T15:23:45.717Z,101523.06
2022-10-13T15:26:14.580Z,101527.53
2022-10-13T15:28:44.531Z,101524.25
2022-10-13T15:31:12.675Z,101527.88
2022-10-13T15:33:41.763Z,101531.53
2022-10-13T15:36:08.335Z,101526.47
2022-10-13T15:38:34.846Z,101527.31
2022-10-13T15:41:01.861Z,101526.53
2022-10-13T15:43:28.335Z,101532.84
2022-10-13T15:46:06.229Z,101523.13
2022-10-13T15:48:33.794Z,101521.47
2022-10-13T15:51:01.173Z,101523.13
2022-10-13T15:53:29.347Z,101522.25
2022-10-13T15:55:56.003Z,101524.00
2022-10-13T15:58:22.898Z,101516.22
2022-10-13T16:00:49.626Z,101518.84
2022-10-13T16:03:18.520Z,101508.38
2022-10-13T16:05:49.403Z,101512.66
2022-10-13T16:08:16.141Z,101515.47
2022-10-13T16:10:43.215Z,101515.47
2022-10-13T16:13:14.300Z,101517.13
2022-10-13T16:15:41.853Z,101512.91
2022-10-13T16:18:08.754Z,101508.72
2022-10-13T16:20:37.839Z,101506.09
2022-10-13T16:23:04.968Z,101500.75
2022-10-13T16:25:32.106Z,101505.16
2022-10-13T16:28:01.224Z,101497.28
2022-10-13T16:30:30.379Z,101505.22
2022-10-13T16:32:58.134Z,101503.56
2022-10-13T16:35:24.824Z,101501.78
2022-10-13T16:37:51.282Z,101501.84
2022-10-13T16:40:17.756Z,101498.50
2022-10-13T16:42:45.412Z,101506.34
2022-10-13T16:45:13.194Z,101511.66
2022-10-13T16:47:39.773Z,101499.59
2022-10-13T16:50:09.609Z,101509.06
2022-10-13T16:52:37.430Z,101512.59
2022-10-13T16:55:05.684Z,101510.97
2022-10-13T16:57:32.799Z,101521.47
2022-10-13T16:59:59.383Z,101520.53
2022-10-13T17:02:25.961Z,101514.44
2022-10-13T17:04:53.519Z,101519.69
2022-10-13T17:07:20.216Z,101517.06
2022-10-13T17:09:47.329Z,101514.44
2022-10-13T17:12:13.938Z,101522.41
2022-10-13T17:14:40.492Z,101535.72
2022-10-13T17:17:06.959Z,101533.22
2022-10-13T17:19:33.587Z,101536.66
2022-10-13T17:22:01.193Z,101542.75
2022-10-13T17:24:29.810Z,101540.13
2022-10-13T17:26:56.428Z,101549.94
2022-10-13T17:30:04.911Z,101549.75
2022-10-13T17:32:31.466Z,101560.50
2022-10-13T17:34:58.191Z,101558.78
2022-10-13T17:37:24.771Z,101553.66
2022-10-13T17:39:51.282Z,101557.44
2022-10-13T17:42:17.861Z,101562.91
2022-10-13T17:44:44.374Z,101561.53
2022-10-13T17:47:10.808Z,101563.41
2022-10-13T17:49:37.382Z,101560.97
2022-10-13T17:52:03.909Z,101568.03
2022-10-13T17:54:30.413Z,101566.75
2022-10-13T17:56:57.218Z,101571.16
2022-10-13T17:59:23.922Z,101574.59
2022-10-13T18:01:50.577Z,101574.69
2022-10-13T18:04:23.551Z,101571.38
2022-10-13T18:06:50.131Z,101574.84
2022-10-13T18:09:19.221Z,101577.38
2022-10-13T18:11:50.589Z,101576.38
2022-10-13T18:14:23.919Z,101577.06
2022-10-13T18:16:51.973Z,101584.06
2022-10-13T18:19:19.264Z,101584.06
2022-10-13T18:21:45.921Z,101579.00
2022-10-13T18:24:12.781Z,101588.53
2022-10-13T18:26:39.667Z,101592.94
2022-10-13T18:29:08.386Z,101595.63
2022-10-13T18:31:37.271Z,101599.41
2022-10-13T18:34:06.396Z,101598.72
2022-10-13T18:36:36.529Z,101607.56
2022-10-13T18:39:05.311Z,101611.94
2022-10-13T18:41:32.743Z,101618.88
2022-10-13T18:43:59.278Z,101615.63
2022-10-13T18:46:26.100Z,101611.28
2022-10-13T18:48:52.623Z,101619.19
2022-10-13T18:51:20.081Z,101620.09
2022-10-13T18:53:48.146Z,101626.28
2022-10-13T18:56:26.056Z,101632.56
2022-10-13T18:58:59.282Z,101629.97
2022-10-13T19:01:28.738Z,101635.13
2022-10-13T19:03:55.806Z,101636.03
2022-10-13T19:06:27.367Z,101643.97
2022-10-13T19:09:00.489Z,101632.66
2022-10-13T19:11:28.914Z,101636.28
2022-10-13T19:13:56.051Z,101632.22
2022-10-13T19:16:25.714Z,101629.66
2022-10-13T19:18:52.220Z,101634.13
2022-10-13T19:21:19.673Z,101628.13
2022-10-13T19:23:46.465Z,101634.44
2022-10-13T19:26:19.703Z,101634.56
2022-10-13T19:28:47.146Z,101630.56
2022-10-13T19:31:19.957Z,101627.97
2022-10-13T19:33:47.944Z,101628.97
2022-10-13T19:36:37.359Z,101635.97
2022-10-13T19:39:07.373Z,101635.28
2022-10-13T19:41:34.398Z,101630.22
2022-10-13T19:44:00.838Z,101634.63
2022-10-13T19:46:27.198Z,101638.38
2022-10-13T19:48:54.161Z,101632.38
2022-10-13T19:51:20.532Z,101637.72
2022-10-13T19:53:46.956Z,101636.88
2022-10-13T19:56:22.449Z,101630.81
2022-10-13T19:58:48.969Z,101631.88
2022-10-13T20:01:15.531Z,101637.41
2022-10-13T20:03:41.938Z,101642.16
2022-10-13T20:06:09.243Z,101637.09
2022-10-13T20:08:35.632Z,101636.38
2022-10-13T20:11:13.066Z,101641.47
2022-10-13T20:13:40.178Z,101643.38
2022-10-13T20:16:11.103Z,101645.28
2022-10-13T20:18:38.068Z,101650.50
2022-10-13T20:21:11.908Z,101650.59
2022-10-13T20:23:40.761Z,101653.31
2022-10-13T20:26:12.514Z,101658.56
2022-10-13T20:28:43.116Z,101664.78
2022-10-13T20:31:11.266Z,101661.44
2022-10-13T20:33:37.900Z,101660.59
2022-10-13T20:36:08.027Z,101655.44
2022-10-13T20:38:38.194Z,101654.66
2022-10-13T20:41:17.667Z,101652.91
2022-10-13T20:43:47.987Z,101661.81
2022-10-13T20:46:16.085Z,101655.72
2022-10-13T20:51:30.509Z,101664.69
2022-10-13T20:53:57.465Z,101670.13
2022-10-13T20:56:25.602Z,101666.16
2022-10-13T20:58:53.066Z,101668.97
2022-10-13T21:01:21.316Z,101668.97
2022-10-13T21:03:53.362Z,101671.78
2022-10-13T21:06:20.787Z,101672.78
2022-10-13T21:08:50.041Z,101677.28
2022-10-13T21:11:18.786Z,101677.44
2022-10-13T21:13:46.225Z,101674.88
2022-10-13T21:16:21.619Z,101681.94
2022-10-13T21:18:49.715Z,101675.94
2022-10-13T21:21:18.919Z,101687.41
2022-10-13T21:23:48.883Z,101687.41
2022-10-13T21:26:20.356Z,101682.19
2022-10-13T21:28:48.031Z,101682.34
2022-10-13T21:31:15.869Z,101681.56
2022-10-13T21:33:43.307Z,101680.06
2022-10-13T21:36:21.527Z,101670.41
2022-10-13T21:38:52.178Z,101669.63
2022-10-13T21:41:19.127Z,101663.69
2022-10-13T21:43:45.664Z,101657.75
2022-10-13T21:46:14.994Z,101660.50
2022-10-13T21:48:41.663Z,101658.81
2022-10-13T21:51:20.259Z,101657.09
2022-10-13T21:53:55.728Z,101657.25
2022-10-13T21:56:25.838Z,101660.13
2022-10-13T21:58:52.931Z,101653.25
2022-10-13T22:01:20.403Z,101661.06
2022-10-13T22:03:48.084Z,101661.19
2022-10-13T22:06:19.306Z,101650.09
2022-10-13T22:08:49.299Z,101645.94
2022-10-13T22:11:17.543Z,101648.59
2022-10-13T22:13:44.311Z,101646.19
2022-10-13T22:16:14.854Z,101642.69
2022-10-13T22:18:41.945Z,101647.03
2022-10-13T22:21:12.033Z,101641.91
2022-10-13T22:23:38.491Z,101642.94
2022-10-13T22:26:04.895Z,101645.59
2022-10-13T22:28:36.764Z,101635.28
2022-10-13T22:31:05.902Z,101625.84
2022-10-13T22:33:34.796Z,101618.88
2022-10-13T22:36:05.383Z,101628.38
2022-10-13T22:38:31.771Z,101624.09
2022-10-13T22:41:02.029Z,101628.34
2022-10-13T22:43:28.654Z,101631.00
2022-10-13T22:45:55.018Z,101632.03
2022-10-13T22:48:21.410Z,101633.13
2022-10-13T22:50:47.775Z,101635.88
2022-10-13T22:53:14.123Z,101636.06
2022-10-13T22:55:41.211Z,101628.78
2022-10-13T22:58:08.458Z,101629.78
2022-10-13T23:00:36.140Z,101631.41
2022-10-13T23:03:02.899Z,101634.78
2022-10-13T23:05:29.342Z,101633.03
2022-10-13T23:07:55.904Z,101624.50
2022-10-13T23:10:22.644Z,101624.44
2022-10-13T23:12:48.963Z,101625.28
2022-10-13T23:15:15.365Z,101623.47
2022-10-13T23:17:41.774Z,101616.44
2022-10-13T23:20:08.775Z,101619.09
2022-10-13T23:22:35.108Z,101615.84
2022-10-13T23:25:01.444Z,101612.31
2022-10-13T23:27:27.882Z,101616.63
2022-10-13T23:29:54.208Z,101616.75
2022-10-13T23:32:20.541Z,101606.28
2022-10-13T23:34:46.931Z,101602.03
2022-10-13T23:37:13.381Z,101602.03
2022-10-13T23:39:39.853Z,101601.91
2022-10-13T23:42:06.162Z,101598.44
2022-10-13T23:44:32.657Z,101599.72
2022-10-13T23:46:58.985Z,101589.38
2022-10-13T23:49:25.317Z,101592.81
2022-10-13T23:51:51.933Z,101596.09
2022-10-13T23:54:18.509Z,101596.88
2022-10-13T23:56:44.884Z,101603.66
2022-10-13T23:59:11.249Z,101597.66
